Aviation Digital Data Service (ADDS)

Output produced by METARs form (1254 UTC 30 March 2015)
found at http://aviationweather.gov/adds/metars/
 
KDAG 301250Z AUTO 25011KT 10SM CLR 16/M01 A3003 RMK AO2 SLP146 T01561006
KDAG 301120Z 3012/3112 25014KT P6SM FEW250 
     FM301600 29010KT P6SM SCT250 
     FM302000 04006KT P6SM SCT250 
     FM310300 26008KT P6SM SCT250
       
KEDW 301158Z AUTO 00000KT 10SM CLR 11/M02 A3002 RMK AO2 SLP148 T01061018 10177 20090
TAF KEDW 3010/3116 VRB06KT 9999 SCT300 QNH3001INS 
     BECMG 3019/3020 23009KT 9999 FEW250 QNH2995INS 
     TEMPO 3023/3103 25012G18KT TX32/3022Z TN09/3114Z
       
KVCV 301235Z AUTO 17005KT 10SM CLR 11/02 A3006 RMK AO2
KONT 301153Z 06003KT 10SM CLR 16/08 A2999 RMK AO2 SLP142 T01560083 10189 20139 56009
KONT 301120Z 3012/3118 VRB04KT P6SM SKC 
     FM302100 26011KT P6SM SKC 
     FM310400 25005KT P6SM SKC 
     FM311100 VRB05KT 3SM BR SCT004 
     TEMPO 3112/3116 1SM BR BKN003 
     FM311600 VRB03KT P6SM SKC
       
KSNA 301246Z AUTO 00000KT 6SM BR OVC005 14/13 A3000 RMK AO2 TSNO $
KSNA 301120Z 3012/3112 VRB03KT 3SM BR OVC003 
     FM301630 VRB03KT P6SM SCT006 
     FM301900 22009KT P6SM SKC 
     FM310300 21005KT P6SM SCT008 
     FM310600 VRB03KT P6SM OVC007
       
KSAN 301251Z 00000KT 10SM OVC008 17/13 A3001 RMK AO2 SLP161 T01670133
KSAN 301120Z 3012/3118 VRB03KT P6SM OVC008 
     FM301530 VRB03KT P6SM SCT010 
     FM301900 28009KT P6SM SKC 
     FM310200 VRB05KT P6SM SCT009 
     FM310500 VRB04KT P6SM OVC008 
     FM311000 VRB03KT P6SM OVC012 
     FM311600 VRB04KT P6SM SCT015
       
KNID 301156Z 21004KT 10SM CLR 11/M01 A3002 RMK AO2 SLP152 T01111011 10183 20106 53001 $
KNXP 301156Z AUTO 28009KT 10SM CLR 18/M01 A3008 RMK AO2 SLP152 T01781011 10217 20156 53002
TAF KNXP 3009/3109 VRB06KT 9999 SKC QNH2996INS AUTOMATED SENSOR METWATCH 3009 TIL 3014 T16/3014Z T31/3023Z
       
KPSP 301153Z AUTO 32003KT 10SM CLR 22/02 A2993 RMK AO2 SLP130 T02170022 10267 20194 56004 TSNO
KPSP 301120Z 3012/3112 VRB05KT P6SM SKC 
     FM302000 12009KT P6SM SKC 
     FM310200 32010KT P6SM SKC 
     FM310700 VRB05KT P6SM SKC
       
KLAX 301153Z 26003KT 4SM BR SCT005 BKN008 14/13 A3000 RMK AO2 SLP157 T01440133 10161 20139 56004
KLAX 301148Z 3012/3118 VRB03KT 4SM BR BKN008 
     FM301300 VRB03KT 1/2SM FG OVC007 
     FM301400 VRB05KT 2SM BR BKN003 
     FM301630 25006KT 4SM BR SCT004 
     FM301900 26012KT P6SM SKC 
     FM310800 VRB05KT 5SM BR BKN008 
     FM311300 VRB03KT 1/2SM FG OVC007 
     FM311600 VRB05KT 2SM BR BKN003
       
KCNO 301153Z AUTO 00000KT 5SM BR CLR 12/10 A3000 RMK AO2 SLP154 T01170100 10161 20106 56009
KSMO 301251Z AUTO 00000KT 10SM OVC006 14/09 A3000 RMK AO2 CIG 004V008 SLP158 T01390094 $
KLGB 301233Z 00000KT 4SM BR OVC004 16/14 A2999 RMK AO2 T01560144
KLGB 301129Z 3012/3112 VRB05KT 5SM BR OVC005 
     FM301300 VRB03KT 1/2SM FG OVC004 
     FM301400 VRB03KT 2SM BR BKN003 
     FM301600 VRB03KT P6SM SKC 
     FM302000 19007KT P6SM SKC 
     FM310100 VRB05KT P6SM SKC 
     FM311100 VRB05KT 5SM BR BKN005
       
KVNY 301251Z 00000KT 10SM CLR 13/07 A2999 RMK AO2 SLP150 T01280067
KVNY 301129Z 3012/3112 VRB05KT P6SM SCT250 
     FM302100 15008KT P6SM SKC 
     FM310300 VRB05KT P6SM SKC
       
KBUR 301153Z 00000KT 10SM CLR 13/06 A2999 RMK AO2 SLP144 T01330056 10189 20133 56006
KBUR 301129Z 3012/3112 VRB05KT P6SM SCT250 
     FM302000 17008KT P6SM SKC 
     FM310400 VRB05KT P6SM SKC
       
KBFL 301154Z AUTO 00000KT 10SM CLR 16/03 A3000 RMK AO2 SLP153 T01560033 10211 20144 55001
KBFL 301120Z 3012/3112 VRB04KT P6SM SKC 
     FM302100 31009KT P6SM SKC 
     FM310300 VRB04KT P6SM SKC
       
KPMD 301153Z AUTO 18005KT 10SM CLR 09/M04 A3005 RMK AO2 SLP155 T00891039 10167 20078 56004
KPMD 301129Z 3012/3112 VRB05KT P6SM SKC 
     FM302100 27008KT P6SM SKC 
     FM310900 VRB05KT P6SM SKC
       
KOXR 301251Z AUTO 03004KT 5SM BR OVC007 14/12 A3001 RMK AO2 SLP160 T01390122
KOXR 301138Z 3012/3112 VRB03KT 3SM BR SCT002 
     FM301300 VRB03KT 4SM BR BKN005 
     FM301600 25007KT 6SM HZ SCT006 
     FM301900 25012KT P6SM SKC 
     FM310200 VRB05KT 4SM BR SCT004 
     FM310800 VRB03KT 1SM BR OVC003
       
KWJF 301156Z AUTO 27003KT 10SM CLR 07/M02 A3004 RMK AO2 SLP164 T00721022 10183 20072 55001
KWJF 301129Z 3012/3112 VRB05KT P6SM SKC 
     FM302100 27010KT P6SM SKC 
     FM310800 VRB05KT P6SM SKC
       
KCMA 301213Z AUTO 10003KT 4SM BR OVC004 13/12 A3000 RMK AO2 CIG 002V006 T01330122
KFAT 301153Z 06003KT 10SM CLR 15/07 A3000 RMK AO2 SLP156 T01500067 10217 20150 56005
KFAT 301120Z 3012/3112 VRB04KT P6SM SKC
       
KEED 301156Z AUTO 00000KT 10SM CLR 20/M06 A2995 RMK AO2 SLP114 T02001056 10261 20178 53003
KEED 301120Z 3012/3112 26010KT P6SM SCT250 
     FM301300 VRB04KT P6SM SCT250 
     FM302000 18008KT P6SM SCT250 
     FM310300 23007KT P6SM SCT250
       
KLSV 301158Z AUTO 35002KT 10SM CLR 14/M06 A3000 RMK AO2 SLP142 T01371058 10218 20137
TAF KLSV 3009/3115 VRB06KT 9999 FEW200 QNH2999INS 
     BECMG 3019/3020 18009KT 9999 SKC QNH2996INS 
     BECMG 3102/3103 VRB06KT 9999 SKC QNH2990INS TX32/3023Z TN14/3013Z
       
KLAS 301156Z 23005KT 10SM FEW250 18/M06 A2998 RMK AO2 SLP131 T01781061 10239 20178 53004
KLAS 301120Z 3012/3112 21008KT P6SM FEW250 
     FM301600 VRB05KT P6SM SCT250 
     FM310300 21008KT P6SM SCT250
       
KHII 301235Z AUTO 10003KT 10SM CLR 19/M04 A2995 RMK AO2
KIFP 301235Z AUTO 00000KT 10SM CLR 18/M04 A2997 RMK AO2 PWINO